• Join FlightAware (Why Join?)
  • Login
  • US Flag 
02:52PM EDT


 

Airport Tracker/Info


-or-


 

Live Flight TrackerFlight Track Log ✈ N335AT ✈ 22-Jul-2013 ✈ KADS - MWCR / GCM

Flight Track Log - Related Links

Times and Time Zones

All times are in EDT time to prevent confusion due to time zone crossing. See the N335AT flight status page for this flight to view local times or setup timezone preferences in your user account.

Time Position Orientation Groundspeed Altitude Reporting Facility
EDT Latitude Longitude Course Direction KTS MPH feet Rate Location/Type
11:07AM 32.9500 -96.8333 163° South 183 211 1,100  Level Dallas / Fort Worth TRACON
11:09AM 32.9333 -96.7333 101° East 225 259 3,400 1,920 Climbing Dallas / Fort Worth TRACON
11:10AM 32.9500 -96.6500 77° East 266 306 5,800 2,280 Climbing Dallas / Fort Worth TRACON
11:11AM 32.9333 -96.5833 107° East 279 321 7,800 1,800 Climbing Dallas / Fort Worth TRACON
11:12AM 32.8500 -96.5833 180° South 265 305 9,500 1,620 Climbing Dallas / Fort Worth TRACON
11:13AM 32.4120 -96.8619 163° South  Level FlightAware Approximate
11:13AM 32.7703 -96.6203 201° Southwest 301 346 11,700  Level Fort Worth Center
11:14AM 32.6767 -96.6581 199° South 318 366 14,700 2,400 Climbing Fort Worth Center
11:15AM 32.5975 -96.6908 199° South 334 384 16,500 1,800 Climbing Fort Worth Center
11:16AM 32.4872 -96.7361 199° South 360 414 18,300 2,100 Climbing Fort Worth Center
11:17AM 32.4017 -96.7686 198° South 378 435 20,800 2,280 Climbing Fort Worth Center
11:18AM 32.2953 -96.8089 198° South 371 427 22,900 1,680 Climbing Fort Worth Center
11:19AM 32.2094 -96.7628 156° South 351 404 24,200 1,620 Climbing Fort Worth Center
11:20AM 32.1361 -96.6750 135° Southeast 346 398 26,200 1,800 Climbing Fort Worth Center
11:21AM 32.0603 -96.5897 136° Southeast 362 417 27,800 1,200 Climbing Fort Worth Center
11:22AM 31.9806 -96.5047 138° Southeast 374 430 28,700 600 Climbing Fort Worth Center
11:23AM 31.8961 -96.4100 136° Southeast 397 457 29,000 660 Climbing Fort Worth Center
11:24AM 31.8097 -96.3108 136° Southeast 419 482 30,100 900 Climbing Fort Worth Center
11:26AM 31.6050 -96.0864 137° Southeast 442 509 32,100 960 Climbing Houston Center
11:27AM 31.5000 -95.9694 136° Southeast 437 503 33,400 1,200 Climbing Houston Center
11:28AM 31.4131 -95.8733 137° Southeast 433 498 34,600 1,140 Climbing Houston Center
11:29AM 31.3269 -95.7806 137° Southeast 426 490 35,800 960 Climbing Houston Center
11:30AM 31.2425 -95.6883 137° Southeast 419 482 36,600 420 Climbing Houston Center
11:31AM 31.1564 -95.5958 137° Southeast 420 483 36,700 360 Climbing Houston Center
11:33AM 31.0667 -95.4992 137° Southeast 433 498 37,400 1,140 Climbing Houston Center
11:34AM 30.9622 -95.3889 138° Southeast 422 486 39,100 960 Climbing Houston Center
11:35AM 30.8803 -95.3006 137° Southeast 408 470 39,400 540 Climbing Houston Center
11:36AM 30.7964 -95.2094 137° Southeast 412 474 40,300 480 Climbing Houston Center
11:37AM 30.7119 -95.1208 138° Southeast 411 473 40,400 240 Climbing Houston Center
11:38AM 30.6267 -95.0269 137° Southeast 418 481 40,800 240 Climbing Houston Center
11:39AM 30.5231 -94.9175 138° Southeast 420 483 41,000 60 Climbing Houston Center
11:40AM 30.4339 -94.8219 137° Southeast 432 497 41,000  Level Houston Center
11:41AM 30.3381 -94.7200 137° Southeast 440 506 41,000  Level Houston Center
11:42AM 30.2453 -94.6222 138° Southeast 447 514 41,000  Level Houston Center
11:43AM 30.1528 -94.5242 137° Southeast 450 518 41,000  Level Houston Center
11:44AM 30.0633 -94.4308 138° Southeast 452 520 41,000  Level Houston Center
11:45AM 29.9678 -94.3386 140° Southeast 450 518 41,000  Level Houston Center
11:46AM 29.8606 -94.2450 143° Southeast 454 522 41,000  Level Houston Center
11:47AM 29.7486 -94.1458 142° Southeast 449 517 41,000  Level Houston Center
11:48AM 29.6500 -94.0597 143° Southeast 447 514 41,000  Level Houston Center
11:49AM 29.5494 -93.9717 143° Southeast 452 520 41,000  Level Houston Center
11:50AM 29.4511 -93.8850 142° Southeast 451 519 41,000  Level Houston Center
11:51AM 29.3328 -93.7817 143° Southeast 448 516 41,000  Level Houston Center
11:52AM 29.2342 -93.6964 143° Southeast 446 513 41,000  Level Houston Center
11:53AM 29.1358 -93.6100 142° Southeast 446 513 41,000  Level Houston Center
11:54AM 29.0378 -93.5250 143° Southeast 445 512 41,000  Level Houston Center
11:55AM 28.9394 -93.4394 143° Southeast 444 511 41,000  Level Houston Center
11:56AM 28.8194 -93.3375 143° Southeast 448 516 41,000  Level Houston Center
11:57AM 28.7211 -93.2525 143° Southeast 445 512 41,000  Level Houston Center
11:58AM 28.6222 -93.1669 143° Southeast 447 514 41,000  Level Houston Center
11:59AM 28.5233 -93.0836 143° Southeast 444 511 41,000  Level Houston Center
12:00PM 28.4244 -92.9972 142° Southeast 447 514 41,000  Level Houston Center
12:01PM 28.3244 -92.9142 144° Southeast 447 514 41,000  Level Houston Center
12:03PM 28.2056 -92.8125 143° Southeast 446 513 41,000  Level Houston Center
12:04PM 28.1067 -92.7269 143° Southeast 446 513 41,000  Level Houston Center
12:05PM 28.0069 -92.6431 143° Southeast 447 514 41,000  Level Houston Center
12:06PM 27.9069 -92.5594 144° Southeast 448 516 41,000  Level Houston Center
12:07PM 27.8089 -92.4758 143° Southeast 444 511 41,000  Level Houston Center
12:08PM 27.6892 -92.3783 144° Southeast 442 509 41,000  Level Houston Center
12:09PM 27.5919 -92.2947 143° Southeast 440 506 41,000  Level Houston Center
12:10PM 27.4925 -92.2131 144° Southeast 441 507 41,000  Level Houston Center
12:11PM 27.3928 -92.1339 145° Southeast 440 506 41,000  Level Houston Center
12:12PM 27.2928 -92.0503 143° Southeast 443 510 41,000  Level Houston Center
12:13PM 27.1933 -91.9683 144° Southeast 444 511 41,000  Level Houston Center
12:14PM 27.0722 -91.8711 144° Southeast 445 512 41,000  Level Houston Center
12:16PM 26.9212 -91.7474 144° Southeast  Level FlightAware Approximate
12:23PM 26.2656 -91.2170 145° Southeast  Level FlightAware Approximate
12:24PM 26.1710 -91.1429 145° Southeast  Level FlightAware Approximate
12:25PM 26.0764 -91.0688 145° Southeast  Level FlightAware Approximate
12:26PM 25.9817 -90.9949 145° Southeast  Level FlightAware Approximate
12:27PM 25.8870 -90.9211 145° Southeast  Level FlightAware Approximate
12:28PM 25.7923 -90.8475 145° Southeast  Level FlightAware Approximate
12:29PM 25.6975 -90.7739 145° Southeast  Level FlightAware Approximate
12:30PM 25.6029 -90.7002 145° Southeast  Level FlightAware Approximate
12:31PM 25.5083 -90.6265 145° Southeast  Level FlightAware Approximate
12:32PM 25.4137 -90.5530 145° Southeast  Level FlightAware Approximate
12:33PM 25.3190 -90.4795 145° Southeast  Level FlightAware Approximate
12:34PM 25.2243 -90.4062 145° Southeast  Level FlightAware Approximate
12:35PM 25.1295 -90.3330 145° Southeast  Level FlightAware Approximate
12:36PM 25.0347 -90.2598 145° Southeast  Level FlightAware Approximate
12:37PM 24.9399 -90.1869 145° Southeast  Level FlightAware Approximate
12:38PM 24.8450 -90.1140 145° Southeast  Level FlightAware Approximate
12:39PM 24.7502 -90.0412 145° Southeast  Level FlightAware Approximate
12:40PM 24.6552 -89.9685 145° Southeast  Level FlightAware Approximate
12:41PM 24.5603 -89.8960 145° Southeast  Level FlightAware Approximate
12:42PM 24.4703 -89.8170 131° Southeast  Level FlightAware Approximate
12:43PM 24.3940 -89.7216 131° Southeast  Level FlightAware Approximate
12:44PM 24.3202 -89.6240 127° Southeast  Level FlightAware Approximate
12:45PM 24.2498 -89.5234 128° Southeast  Level FlightAware Approximate
12:46PM 24.1777 -89.4243 129° Southeast  Level FlightAware Approximate
12:47PM 24.1052 -89.3256 129° Southeast  Level FlightAware Approximate
12:48PM 24.0325 -89.2271 129° Southeast  Level FlightAware Approximate
12:49PM 23.9598 -89.1287 129° Southeast  Level FlightAware Approximate
12:50PM 23.8871 -89.0304 129° Southeast  Level FlightAware Approximate
12:51PM 23.8143 -88.9322 129° Southeast  Level FlightAware Approximate
12:52PM 23.7414 -88.8341 129° Southeast  Level FlightAware Approximate
12:53PM 23.6684 -88.7361 129° Southeast  Level FlightAware Approximate
12:54PM 23.5953 -88.6383 129° Southeast  Level FlightAware Approximate
12:55PM 23.5218 -88.5410 129° Southeast  Level FlightAware Approximate
12:56PM 23.4482 -88.4437 130° Southeast  Level FlightAware Approximate
12:57PM 23.3746 -88.3466 130° Southeast  Level FlightAware Approximate
12:58PM 23.3009 -88.2496 130° Southeast  Level FlightAware Approximate
12:59PM 23.2271 -88.1527 130° Southeast  Level FlightAware Approximate
01:00PM 23.1533 -88.0559 130° Southeast  Level FlightAware Approximate
01:01PM 23.0794 -87.9592 130° Southeast  Level FlightAware Approximate
01:02PM 23.0055 -87.8626 130° Southeast  Level FlightAware Approximate
01:03PM 22.9315 -87.7661 130° Southeast  Level FlightAware Approximate
01:04PM 22.8574 -87.6697 130° Southeast  Level FlightAware Approximate
01:05PM 22.7833 -87.5734 130° Southeast  Level FlightAware Approximate
01:06PM 22.7091 -87.4772 130° Southeast  Level FlightAware Approximate
01:07PM 22.6349 -87.3811 130° Southeast  Level FlightAware Approximate
01:08PM 22.5606 -87.2852 130° Southeast  Level FlightAware Approximate
01:09PM 22.4854 -87.1900 131° Southeast  Level FlightAware Approximate
01:10PM 22.4097 -87.0955 131° Southeast  Level FlightAware Approximate
01:11PM 22.3359 -86.9993 130° Southeast  Level FlightAware Approximate
01:12PM 22.2623 -86.9029 130° Southeast  Level FlightAware Approximate
01:13PM 22.1886 -86.8067 130° Southeast  Level FlightAware Approximate
01:14PM 22.1148 -86.7105 130° Southeast  Level FlightAware Approximate
01:15PM 22.0410 -86.6145 130° Southeast  Level FlightAware Approximate
01:16PM 21.9672 -86.5185 130° Southeast  Level FlightAware Approximate
01:17PM 21.8932 -86.4227 130° Southeast  Level FlightAware Approximate
01:18PM 21.8189 -86.3273 130° Southeast  Level FlightAware Approximate
01:19PM 21.7439 -86.2325 130° Southeast  Level FlightAware Approximate
01:20PM 21.6688 -86.1378 130° Southeast  Level FlightAware Approximate
01:21PM 21.5937 -86.0433 130° Southeast  Level FlightAware Approximate
01:22PM 21.5186 -85.9488 131° Southeast  Level FlightAware Approximate
01:23PM 21.4433 -85.8544 131° Southeast  Level FlightAware Approximate
01:24PM 21.3681 -85.7601 131° Southeast  Level FlightAware Approximate
01:25PM 21.2928 -85.6659 131° Southeast  Level FlightAware Approximate
01:26PM 21.2350 -85.5624 107° East  Level FlightAware Approximate
01:27PM 21.2020 -85.4435 107° East  Level FlightAware Approximate
01:28PM 21.1690 -85.3247 107° East  Level FlightAware Approximate
01:29PM 21.1359 -85.2059 107° East  Level FlightAware Approximate
01:30PM 21.1027 -85.0872 107° East  Level FlightAware Approximate
01:31PM 21.0694 -84.9685 107° East  Level FlightAware Approximate
01:32PM 21.0360 -84.8499 107° East  Level FlightAware Approximate
01:33PM 21.0026 -84.7313 107° East  Level FlightAware Approximate
01:34PM 20.9690 -84.6128 107° East  Level FlightAware Approximate
01:35PM 20.9354 -84.4943 107° East  Level FlightAware Approximate
01:36PM 20.9017 -84.3759 107° East  Level FlightAware Approximate
01:37PM 20.8679 -84.2576 107° East  Level FlightAware Approximate
01:38PM 20.8340 -84.1393 107° East  Level FlightAware Approximate
01:39PM 20.8001 -84.0210 107° East  Level FlightAware Approximate
01:40PM 20.7661 -83.9028 107° East  Level FlightAware Approximate
01:41PM 20.7320 -83.7847 107° East  Level FlightAware Approximate
01:42PM 20.6978 -83.6666 107° East  Level FlightAware Approximate
01:43PM 20.6635 -83.5485 107° East  Level FlightAware Approximate
01:44PM 20.6292 -83.4306 107° East  Level FlightAware Approximate
01:45PM 20.5947 -83.3126 107° East  Level FlightAware Approximate
01:46PM 20.5622 -83.1942 102° East  Level FlightAware Approximate
01:47PM 20.5328 -83.0749 107° East  Level FlightAware Approximate
01:48PM 20.4980 -82.9572 107° East  Level FlightAware Approximate
01:49PM 20.4631 -82.8395 108° East  Level FlightAware Approximate
01:50PM 20.4282 -82.7219 108° East  Level FlightAware Approximate
01:51PM 20.3941 -82.6040 107° East  Level FlightAware Approximate
01:52PM 20.3604 -82.4860 107° East  Level FlightAware Approximate
01:53PM 20.3266 -82.3681 107° East  Level FlightAware Approximate
01:54PM 20.2943 -82.2506 111° Southeast  Level FlightAware Approximate
01:55PM 20.2532 -82.1354 111° Southeast  Level FlightAware Approximate
01:56PM 20.2125 -82.0200 108° East  Level FlightAware Approximate
01:57PM 20.1760 -81.9031 108° East  Level FlightAware Approximate
01:58PM 20.1395 -81.7863 108° East  Level FlightAware Approximate
01:59PM 20.1069 -81.6681 106° East  Level FlightAware Approximate
02:00PM 20.0751 -81.5498 106° East  Level FlightAware Approximate
02:01PM 20.0432 -81.4314 106° East  Level FlightAware Approximate
02:02PM 20.0074 -81.3148 118° Southeast  Level FlightAware Approximate
02:03PM 19.9321 -81.2764 188° South  Level FlightAware Approximate
02:04PM 19.8176 -81.2935 188° South  Level FlightAware Approximate
02:05PM 19.7031 -81.3111 188° South  Level FlightAware Approximate
02:06PM 19.5882 -81.3245 185° South  Level FlightAware Approximate
02:07PM 19.4737 -81.3399 193° South  Level FlightAware Approximate
02:08PM 19.3592 -81.3500 180° South  Level FlightAware Approximate
02:09PM 19.2928 -81.3577 137° Southeast  Level Estimated
02:10PM 19.2928 -81.3577 137° Southeast  Level Estimated
02:11PM 19.2928 -81.3577 137° Southeast  Level Estimated
02:12PM 19.2928 -81.3577 137° Southeast  Level Estimated
02:13PM 19.2928 -81.3577 137° Southeast  Level Estimated
02:14PM 19.2928 -81.3577 137° Southeast  Level Estimated
02:15PM 19.2928 -81.3577 137° Southeast  Level Estimated
02:16PM 19.2928 -81.3577 137° Southeast  Level Estimated
02:17PM 19.2928 -81.3577 137° Southeast  Level Estimated
02:18PM 19.2928 -81.3577 137° Southeast  Level Estimated
02:19PM 19.2928 -81.3577 137° Southeast  Level Estimated
02:20PM 19.2928 -81.3577 137° Southeast  Level Estimated
02:21PM 19.2928 -81.3577 137° Southeast  Level Estimated
02:22PM 19.2928 -81.3577 137° Southeast  Level Estimated
02:23PM 19.2928 -81.3577 137° Southeast  Level Estimated